Sunday, December 16, 2018, 12:31 PM EST
Back to Local

KELZ, Wellsville Municipal Airport

Location: Wellsville, NY, United States Lat: 42.1
Local Time: 12:31 PM EST (17:31 GMT) Lon: -78
Time Zone: US/Eastern Elev: 2122 ft

Show me the last for .
Show Decoded

2018-12-16 12:06 METAR KELZ 161706Z AUTO 00000KT 1 1/4SM BR OVC005 02/02 A2991 RMK AO2 CIG
                 002V009 T00170017 $ =
2018-12-16 11:56 METAR KELZ 161656Z AUTO 10003KT 1 1/4SM BR BKN003 OVC007 02/02 A2991 RMK AO2
                 RAE01 SLP150 P0000 T00170017 $ =
2018-12-16 11:52 METAR KELZ 161652Z AUTO 11004KT 1 1/2SM BR BKN003 OVC007 02/02 A2991 RMK AO2
                 RAE01 P0000 $ =
2018-12-16 10:56 METAR KELZ 161556Z AUTO 11005KT 2SM -RA BR BKN004 OVC014 01/01 A2995 RMK AO2
                 UPB02E42RAB42 SLP163 P0001 T00110011 $ =
2018-12-16 10:42 METAR KELZ 161542Z AUTO 12005KT 1SM -RA BR BKN004 BKN019 OVC027 01/01 A2996 RMK
                 AO2 UPB02E42RAB42 P0001 T00060006 $ =
2018-12-16 10:29 METAR KELZ 161529Z AUTO 12005KT 3/4SM UP BR SCT004 BKN019 OVC026 00/00 A2997 RMK
                 AO2 UPB02 P0001 T00000000 $ =
2018-12-16 10:21 METAR KELZ 161521Z AUTO 13004KT 1SM UP BR SCT004 OVC025 00/00 A2997 RMK AO2
                 UPB02 P0000 T00000000 $ =
2018-12-16 09:56 METAR KELZ 161456Z AUTO 13004KT 3/4SM BR SCT005 OVC026 00/00 A2999 RMK AO2 UPE14
                 SLP176 P0000 60002 I3000 T00000000 50005 $ =
2018-12-16 09:23 METAR KELZ 161423Z AUTO 12005KT 1 1/4SM BR FEW008 OVC026 00/00 A2999 RMK AO2
                 UPE14 P0000 T00000000 $ =
2018-12-16 09:15 METAR KELZ 161415Z AUTO 12006KT 2SM BR BKN028 OVC035 00/00 A2999 RMK AO2 UPE14
                 P0000 T00000000 $ =
2018-12-16 09:06 METAR KELZ 161406Z AUTO 11009KT 1SM UP BR FEW010 FEW026 OVC035 00/00 A2999 RMK
                 AO2 P0000 T00000000 $ =
2018-12-16 08:56 METAR KELZ 161356Z AUTO 10005KT M1/4SM UP FG FEW011 OVC037 00/00 A2999 RMK AO2
                 UPB25SNE25 SLP175 P0002 I1000 T00000000 $ =
2018-12-16 08:40 METAR KELZ 161340Z AUTO 11003KT M1/4SM UP FG SCT036 OVC043 00/00 A2999 RMK AO2
                 UPB25SNE25 P0002 T00000000 $ =
2018-12-16 08:32 METAR KELZ 161332Z AUTO 00000KT 3/4SM UP BR FEW036 OVC043 00/00 A2999 RMK AO2
                 UPB25SNE25 P0002 T00000000 $ =
2018-12-16 08:26 METAR KELZ 161326Z AUTO 07004KT 2 1/2SM UP BR OVC043 00/00 A2998 RMK AO2
                 UPB25SNE25 P0002 T00000000 $ =
2018-12-16 08:07 METAR KELZ 161307Z AUTO 10003KT 1 1/4SM -SN BR OVC042 00/00 A2999 RMK AO2 P0001
                 T00000000 $ =
2018-12-16 07:56 METAR KELZ 161256Z AUTO 00000KT 2SM -SN BR OVC048 00/00 A2999 RMK AO2
                 UPB01E29B47E51FZRAE01SNB14E24B51 SLP176 P0000 I1000 T00000000 $ =
2018-12-16 07:54 METAR KELZ 161254Z AUTO 00000KT 1SM -SN BR OVC048 00/00 A2999 RMK AO2
                 UPB01E29B47E51FZRAE01SNB14E24B51 P0000 I1000 $ =
2018-12-16 07:41 METAR KELZ 161241Z AUTO 00000KT 1/4SM FZFG OVC044 M01/M01 A3000 RMK AO2
                 UPB01E29FZRAE01SNB14E24 P0000 I1000 T10061006 $ =
2018-12-16 07:35 METAR KELZ 161235Z AUTO 00000KT 1/2SM FG BKN028 OVC048 00/00 A2999 RMK AO2
                 UPB01E29FZRAE01SNB14E24 P0000 I1000 T00000000 $ =
2018-12-16 07:13 METAR KELZ 161213Z AUTO 12004KT M1/4SM UP FZFG OVC030 M01/M01 A2998 RMK AO2
                 UPB01FZRAE01 P0000 I1000 T10061006 =
2018-12-16 07:05 METAR KELZ 161205Z AUTO 13004KT 3/4SM UP BR OVC049 00/00 A2997 RMK AO2
                 UPB01FZRAE01 P0000 I1000 T00000000 =
2018-12-16 07:03 METAR KELZ 161203Z AUTO 11003KT 2 1/2SM UP BR OVC049 00/00 A2997 RMK AO2
                 UPB01FZRAE01 P0000 I1000 T00000000 =
2018-12-16 06:56 METAR KELZ 161156Z AUTO 03003KT 6SM -FZRA BR OVC047 00/00 A2997 RMK AO2
                 UPE05FZRAB05 SLP170 P0002 60024 70024 I1002 I6011 T00000000 10006 21006 58015 =
2018-12-16 06:25 METAR KELZ 161125Z AUTO 34007KT 3SM -FZRA BR OVC044 00/00 A2998 RMK AO2
                 UPE05FZRAB05 P0001 I1001 T00000000 =
2018-12-16 06:17 METAR KELZ 161117Z AUTO 35005KT 2 1/2SM -FZRA BR OVC044 00/00 A2998 RMK AO2
                 UPE05FZRAB05 P0001 I1001 T00000000 =
2018-12-16 06:05 METAR KELZ 161105Z AUTO 35005KT 3SM -FZRA BR OVC044 00/00 A2999 RMK AO2
                 UPE05FZRAB05 P0000 I1000 T00000000 =
2018-12-16 05:56 METAR KELZ 161056Z AUTO 03004KT 2 1/2SM UP BR OVC044 00/00 A2999 RMK AO2
                 UPB05RAB43E46FZRAE05SNB31E43 SLP177 P0002 I1000 T00000000 =
2018-12-16 05:13 METAR KELZ 161013Z AUTO 00000KT 4SM UP BR OVC047 00/00 A3000 RMK AO2
                 UPB05FZRAE05 P0000 I1000 T00000000 =
2018-12-16 05:05 METAR KELZ 161005Z AUTO 12003KT 2 1/2SM UP BR OVC046 00/00 A3000 RMK AO2
                 UPB05FZRAE05 P0000 I1000 T00000000 =
2018-12-16 04:56 METAR KELZ 160956Z AUTO 00000KT 1 3/4SM -FZRA BR OVC044 00/00 A3001 RMK AO2
                 SLP181 P0005 I1004 T00000000 =
2018-12-16 04:47 METAR KELZ 160947Z AUTO 07003KT 3SM -FZRA BR OVC046 00/00 A3000 RMK AO2 P0004
                 I1002 T00000000 =
2018-12-16 04:18 METAR KELZ 160918Z AUTO 04003KT 2SM -FZRA BR OVC049 00/00 A3000 RMK AO2 P0003
                 I1000 T00000000 =
2018-12-16 04:09 METAR KELZ 160909Z AUTO 00000KT 1 3/4SM -FZRA BR OVC049 00/00 A3001 RMK AO2
                 P0002 I1000 T00000000 =
2018-12-16 03:56 METAR KELZ 160856Z AUTO 12004KT 1SM FZRA BR OVC048 M01/M01 A3002 RMK AO2
                 UPE11FZRAB11 SLP185 P0014 60015 I1005 I3005 T10061006 56014 =
2018-12-16 03:13 METAR KELZ 160813Z AUTO 08004KT 1 3/4SM FZRA BR OVC050 M01/M01 A3003 RMK AO2
                 UPE11FZRAB11 P0004 I1001 T10061006 =
2018-12-16 03:04 METAR KELZ 160804Z AUTO 08005KT 2 1/2SM UP BR FEW007 OVC055 M01/M01 A3003 RMK
                 AO2 P0001 I1000 T10061006 =
2018-12-16 02:56 METAR KELZ 160756Z AUTO 08005KT 3SM UP BR FEW006 BKN060 OVC080 M01/M01 A3003 RMK
                 AO2 UPB47 SLP189 P0001 T10061006 =
2018-12-16 02:48 METAR KELZ 160748Z AUTO 11004KT 4SM UP BR BKN006 BKN055 OVC100 M01/M01 A3004 RMK
                 AO2 UPB47 P0000 T10061006 =
2018-12-16 01:56 METAR KELZ 160656Z AUTO 07004KT 4SM BR SCT007 BKN048 M01/M01 A3004 RMK AO2
                 SLP193 T10061006 =
2018-12-16 00:56 METAR KELZ 160556Z AUTO 08004KT 5SM BR FEW008 M01/M01 A3006 RMK AO2 SLP199
                 T10061006 10011 21006 58021 =
2018-12-16 00:23 METAR KELZ 160523Z AUTO 04005KT 4SM BR FEW007 M01/M01 A3007 RMK AO2 T10061006 =
2018-12-15 23:56 METAR KELZ 160456Z AUTO 06004KT 4SM BR FEW120 M01/M01 A3009 RMK AO2 SLP210
                 T10061006 400441006 =
2018-12-15 22:56 METAR KELZ 160356Z AUTO 03005KT 4SM BR BKN110 00/M01 A3010 RMK AO2 SLP212
                 T00001006 =
2018-12-15 21:56 METAR KELZ 160256Z AUTO 04006KT 4SM BR FEW110 00/M01 A3013 RMK AO2 SLP221
                 T00001006 50001 =
2018-12-15 20:56 METAR KELZ 160156Z AUTO 07007KT 5SM BR CLR 01/M01 A3014 RMK AO2 SLP226 T00061006
                 =
2018-12-15 19:56 METAR KELZ 160056Z AUTO 10003KT 5SM BR CLR 01/M01 A3013 RMK AO2 SLP223 T00061006
                 =
2018-12-15 18:56 METAR KELZ 152356Z AUTO 07005KT 4SM BR CLR 01/00 A3012 RMK AO2 SLP221 T00060000
                 10039 20006 50008 =
2018-12-15 17:56 METAR KELZ 152256Z AUTO 08003KT 5SM BR CLR 01/00 A3014 RMK AO2 SLP225 T00110000
                 =
2018-12-15 16:56 METAR KELZ 152156Z AUTO 07004KT 6SM HZ CLR 02/M01 A3013 RMK AO2 SLP221 T00221006
                 =
2018-12-15 15:56 METAR KELZ 152056Z AUTO 06007KT 9SM CLR 03/M01 A3010 RMK AO2 SLP209 T00281006
                 55011 =
2018-12-15 14:56 METAR KELZ 151956Z AUTO 06005KT 10SM CLR 03/01 A3009 RMK AO2 SLP207 T00330006 =
2018-12-15 13:56 METAR KELZ 151856Z AUTO 07006KT 10SM CLR 03/00 A3010 RMK AO2 SLP210 T00330000 =
2018-12-15 12:56 METAR KELZ 151756Z AUTO 10004KT 10SM CLR 04/02 A3013 RMK AO2 SLP218 T00390017
                 10039 20011 56016 =

Support USWX by starting your Amazon purchase here.